createdAt,value
2022-09-28T00:04:07.300Z,100.00
2022-09-28T00:09:08.611Z,100.00
2022-09-28T00:14:11.101Z,100.00
2022-09-28T00:19:13.025Z,100.00
2022-09-28T00:24:17.791Z,100.00
2022-09-28T00:29:23.641Z,100.00
2022-09-28T00:34:25.354Z,100.00
2022-09-28T00:39:27.160Z,100.00
2022-09-28T00:44:28.444Z,100.00
2022-09-28T00:49:36.078Z,100.00
2022-09-28T00:54:37.556Z,100.00
2022-09-28T00:59:38.998Z,100.00
2022-09-28T01:04:40.370Z,100.00
2022-09-28T01:09:45.348Z,100.00
2022-09-28T01:14:46.904Z,100.00
2022-09-28T01:20:06.976Z,100.00
2022-09-28T01:25:13.511Z,100.00
2022-09-28T01:30:15.986Z,100.00
2022-09-28T01:35:20.730Z,100.00
2022-09-28T01:40:24.150Z,100.00
2022-09-28T01:45:28.606Z,100.00
2022-09-28T01:50:31.140Z,100.00
2022-09-28T01:55:38.755Z,100.00
2022-09-28T02:00:42.456Z,100.00
2022-09-28T02:05:48.470Z,100.00
2022-09-28T02:10:53.796Z,100.00
2022-09-28T02:16:15.434Z,100.00
2022-09-28T02:21:28.152Z,100.00
2022-09-28T02:26:31.992Z,100.00
2022-09-28T02:31:33.357Z,100.00
2022-09-28T02:36:34.932Z,100.00
2022-09-28T02:41:45.441Z,100.00
2022-09-28T02:46:49.719Z,100.00
2022-09-28T02:51:59.454Z,100.00
2022-09-28T02:57:00.800Z,100.00
2022-09-28T03:02:09.224Z,100.00
2022-09-28T03:07:10.527Z,100.00
2022-09-28T03:12:13.706Z,100.00
2022-09-28T03:17:15.074Z,100.00
2022-09-28T03:22:16.375Z,100.00
2022-09-28T03:27:17.864Z,100.00
2022-09-28T03:32:19.173Z,100.00
2022-09-28T03:37:20.471Z,100.00
2022-09-28T03:42:21.796Z,100.00
2022-09-28T03:47:23.083Z,100.00
2022-09-28T03:52:24.389Z,100.00
2022-09-28T03:57:25.693Z,100.00
2022-09-28T04:02:27.103Z,100.00
2022-09-28T04:07:31.059Z,100.00
2022-09-28T04:12:32.685Z,100.00
2022-09-28T04:17:39.172Z,100.00
2022-09-28T04:22:41.488Z,100.00
2022-09-28T04:28:01.550Z,100.00
2022-09-28T04:33:02.877Z,100.00
2022-09-28T04:38:04.207Z,100.00
2022-09-28T04:43:05.525Z,100.00
2022-09-28T04:48:07.747Z,100.00
2022-09-28T04:53:09.061Z,100.00
2022-09-28T04:58:10.359Z,100.00
2022-09-28T05:03:11.654Z,100.00
2022-09-28T05:08:13.047Z,100.00
2022-09-28T05:13:14.422Z,100.00
2022-09-28T05:18:15.719Z,100.00
2022-09-28T05:23:17.599Z,100.00
2022-09-28T05:28:27.412Z,100.00
2022-09-28T05:33:29.246Z,100.00
2022-09-28T05:38:30.780Z,100.00
2022-09-28T05:43:32.215Z,100.00
2022-09-28T05:48:33.510Z,100.00
2022-09-28T05:53:34.796Z,100.00
2022-09-28T05:58:36.100Z,100.00
2022-09-28T06:03:37.426Z,100.00
2022-09-28T06:08:42.850Z,100.00
2022-09-28T06:13:44.148Z,100.00
2022-09-28T06:18:45.448Z,100.00
2022-09-28T06:23:49.148Z,100.00
2022-09-28T06:28:50.603Z,100.00
2022-09-28T06:33:52.307Z,95.03
2022-09-28T06:38:53.620Z,100.00
2022-09-28T06:43:55.310Z,100.00
2022-09-28T06:48:56.681Z,100.00
2022-09-28T06:53:58.079Z,100.00
2022-09-28T06:58:59.421Z,100.00
2022-09-28T07:04:01.855Z,100.00
2022-09-28T07:09:28.565Z,100.00
2022-09-28T07:14:44.463Z,100.00
2022-09-28T07:19:52.649Z,100.00
2022-09-28T07:24:53.974Z,100.00
2022-09-28T07:29:55.349Z,98.37
2022-09-28T07:34:58.874Z,97.88
2022-09-28T07:40:23.513Z,99.93
2022-09-28T07:45:24.917Z,100.00
2022-09-28T07:50:26.227Z,100.00
2022-09-28T07:55:27.552Z,90.72
2022-09-28T08:00:33.946Z,91.16
2022-09-28T08:05:35.855Z,93.25
2022-09-28T08:10:37.783Z,91.42
2022-09-28T08:15:39.201Z,89.27
2022-09-28T08:20:59.439Z,84.31
2022-09-28T08:26:00.765Z,86.44
2022-09-28T08:31:02.204Z,81.85
2022-09-28T08:36:04.549Z,75.56
2022-09-28T08:41:17.067Z,83.10
2022-09-28T08:46:23.882Z,81.23
2022-09-28T08:51:31.178Z,80.37
2022-09-28T08:56:47.288Z,77.94
2022-09-28T09:01:58.106Z,82.58
2022-09-28T09:07:14.533Z,79.55
2022-09-28T09:12:21.315Z,75.98
2022-09-28T09:17:37.832Z,74.32
2022-09-28T09:22:40.875Z,77.94
2022-09-28T09:27:53.561Z,80.67
2022-09-28T09:33:24.965Z,77.28
2022-09-28T09:38:50.028Z,73.92
2022-09-28T09:44:10.847Z,75.49
2022-09-28T09:49:15.068Z,75.93
2022-09-28T09:54:20.992Z,76.73
2022-09-28T09:59:25.847Z,66.88
2022-09-28T10:04:32.543Z,59.62
2022-09-28T10:09:42.288Z,61.93
2022-09-28T10:14:43.689Z,64.88
2022-09-28T10:19:45.183Z,66.23
2022-09-28T10:24:48.797Z,66.90
2022-09-28T10:29:50.093Z,72.84
2022-09-28T10:34:52.606Z,72.69
2022-09-28T10:39:55.203Z,73.56
2022-09-28T10:45:00.138Z,73.21
2022-09-28T10:50:01.729Z,70.24
2022-09-28T10:55:23.361Z,70.46
2022-09-28T11:00:42.217Z,68.99
2022-09-28T11:05:52.281Z,71.67
2022-09-28T11:11:04.053Z,67.63
2022-09-28T11:16:05.555Z,63.39
2022-09-28T11:21:11.024Z,65.99
2022-09-28T11:26:18.429Z,66.04
2022-09-28T11:31:25.931Z,65.35
2022-09-28T11:36:35.120Z,70.28
2022-09-28T11:41:47.991Z,64.76
2022-09-28T11:46:55.285Z,68.56
2022-09-28T11:51:57.483Z,69.59
2022-09-28T11:57:01.153Z,65.43
2022-09-28T12:02:10.297Z,67.96
2022-09-28T12:07:18.837Z,64.55
2022-09-28T12:12:23.770Z,67.72
2022-09-28T12:17:29.814Z,62.31
2022-09-28T12:22:40.833Z,67.35
2022-09-28T12:27:47.762Z,66.93
2022-09-28T12:32:49.046Z,68.17
2022-09-28T12:37:56.180Z,69.66
2022-09-28T12:42:57.463Z,72.20
2022-09-28T12:48:01.804Z,72.59
2022-09-28T12:53:22.075Z,74.48
2022-09-28T12:58:41.525Z,73.16
2022-09-28T13:03:52.020Z,76.36
2022-09-28T13:08:55.276Z,73.86
2022-09-28T13:14:04.207Z,73.48
2022-09-28T13:19:08.663Z,73.16
2022-09-28T13:24:31.162Z,74.20
2022-09-28T13:29:35.053Z,74.61
2022-09-28T13:34:37.108Z,73.89
2022-09-28T13:39:38.558Z,77.77
2022-09-28T13:44:54.335Z,74.71
2022-09-28T13:50:04.663Z,73.61
2022-09-28T13:55:24.979Z,73.96
2022-09-28T14:00:30.901Z,70.81
2022-09-28T14:05:32.201Z,74.09
2022-09-28T14:10:49.356Z,71.62
2022-09-28T14:15:51.250Z,72.67
2022-09-28T14:21:01.956Z,68.71
2022-09-28T14:26:20.730Z,72.17
2022-09-28T14:31:28.976Z,69.23
2022-09-28T14:36:51.965Z,70.30
2022-09-28T14:41:53.384Z,74.62
2022-09-28T14:47:14.639Z,70.16
2022-09-28T14:52:19.161Z,70.80
2022-09-28T14:57:22.658Z,70.27
2022-09-28T15:02:31.397Z,67.73
2022-09-28T15:07:50.636Z,67.95
2022-09-28T15:12:55.972Z,66.30
2022-09-28T15:18:02.182Z,65.35
2022-09-28T15:23:03.904Z,68.22
2022-09-28T15:28:18.062Z,68.28
2022-09-28T15:33:45.423Z,70.89
2022-09-28T15:38:52.597Z,73.48
2022-09-28T15:44:12.413Z,70.58
2022-09-28T15:49:23.085Z,70.46
2022-09-28T15:54:27.488Z,71.56
2022-09-28T15:59:30.983Z,72.14
2022-09-28T16:04:54.497Z,70.15
2022-09-28T16:09:55.844Z,77.75
2022-09-28T16:14:58.653Z,77.60
2022-09-28T16:20:01.802Z,80.26
2022-09-28T16:25:05.309Z,85.27
2022-09-28T16:30:20.208Z,85.64
2022-09-28T16:35:21.535Z,89.44
2022-09-28T16:40:22.905Z,90.34
2022-09-28T16:45:24.321Z,89.27
2022-09-28T16:50:26.173Z,93.73
2022-09-28T16:55:40.231Z,95.65
2022-09-28T17:00:43.444Z,96.17
2022-09-28T17:05:45.776Z,100.00
2022-09-28T17:11:13.076Z,100.00
2022-09-28T17:16:28.170Z,100.00
2022-09-28T17:21:38.251Z,100.00
2022-09-28T17:26:40.349Z,91.37
2022-09-28T17:31:42.771Z,90.21
2022-09-28T17:36:44.748Z,90.28
2022-09-28T17:41:46.084Z,94.13
2022-09-28T17:46:49.623Z,95.17
2022-09-28T17:51:52.816Z,99.90
2022-09-28T17:56:54.140Z,100.00
2022-09-28T18:01:58.328Z,100.00
2022-09-28T18:07:01.732Z,100.00
2022-09-28T18:12:04.380Z,100.00
2022-09-28T18:17:05.725Z,100.00
2022-09-28T18:22:07.040Z,100.00
2022-09-28T18:27:08.341Z,100.00
2022-09-28T18:32:09.674Z,100.00
2022-09-28T18:37:11.018Z,100.00
2022-09-28T18:42:13.225Z,100.00
2022-09-28T18:47:15.129Z,100.00
2022-09-28T18:52:16.578Z,100.00
2022-09-28T18:57:18.380Z,100.00
2022-09-28T19:02:19.743Z,100.00
2022-09-28T19:07:21.267Z,100.00
2022-09-28T19:12:23.779Z,100.00
2022-09-28T19:17:25.119Z,100.00
2022-09-28T19:22:26.486Z,100.00
2022-09-28T19:27:27.814Z,100.00
2022-09-28T19:32:29.133Z,100.00
2022-09-28T19:37:31.621Z,100.00
2022-09-28T19:42:34.055Z,100.00
2022-09-28T19:47:35.853Z,100.00
2022-09-28T19:52:37.167Z,100.00
2022-09-28T19:57:38.477Z,100.00
2022-09-28T20:02:39.810Z,100.00
2022-09-28T20:07:41.171Z,100.00
2022-09-28T20:12:42.484Z,100.00
2022-09-28T20:17:43.858Z,100.00
2022-09-28T20:22:45.232Z,100.00
2022-09-28T20:27:46.541Z,100.00
2022-09-28T20:32:49.731Z,100.00
2022-09-28T20:37:51.187Z,100.00
2022-09-28T20:42:52.515Z,100.00
2022-09-28T20:47:53.823Z,100.00
2022-09-28T20:52:55.125Z,100.00
2022-09-28T20:57:56.438Z,100.00
2022-09-28T21:02:57.938Z,100.00
2022-09-28T21:07:59.300Z,100.00
2022-09-28T21:13:00.625Z,100.00
2022-09-28T21:18:01.939Z,100.00
2022-09-28T21:23:03.269Z,100.00
2022-09-28T21:28:04.620Z,100.00
2022-09-28T21:33:05.998Z,100.00
2022-09-28T21:38:07.366Z,100.00
2022-09-28T21:43:08.678Z,100.00
2022-09-28T21:48:09.978Z,100.00
2022-09-28T21:53:11.308Z,100.00
2022-09-28T21:58:12.594Z,100.00
2022-09-28T22:03:13.898Z,100.00
2022-09-28T22:08:15.211Z,100.00
2022-09-28T22:13:17.298Z,100.00
2022-09-28T22:18:18.774Z,100.00
2022-09-28T22:23:21.454Z,100.00
2022-09-28T22:28:22.831Z,100.00
2022-09-28T22:33:24.272Z,100.00
2022-09-28T22:38:25.657Z,100.00
2022-09-28T22:43:27.072Z,100.00
2022-09-28T22:48:28.565Z,100.00
2022-09-28T22:53:29.972Z,100.00
2022-09-28T22:58:32.024Z,100.00
2022-09-28T23:03:33.476Z,100.00
2022-09-28T23:08:35.016Z,100.00
2022-09-28T23:13:37.569Z,100.00
2022-09-28T23:18:40.920Z,100.00
2022-09-28T23:23:42.904Z,100.00
2022-09-28T23:28:44.651Z,100.00
2022-09-28T23:33:46.226Z,100.00
2022-09-28T23:38:47.629Z,100.00
2022-09-28T23:43:48.952Z,100.00
2022-09-28T23:48:50.317Z,100.00
2022-09-28T23:53:51.741Z,100.00
2022-09-28T23:58:53.067Z,100.00
